sensor_id;sensor_type;location;lat;lon;timestamp;pressure;altitude;pressure_sealevel;temperature;humidity
13553;BME280;6847;48.830;9.116;2023-02-13T00:00:21;99821.66;;;4.18;54.32
13553;BME280;6847;48.830;9.116;2023-02-13T00:02:48;99820.81;;;4.17;54.13
13553;BME280;6847;48.830;9.116;2023-02-13T00:05:15;99820.34;;;4.14;54.51
13553;BME280;6847;48.830;9.116;2023-02-13T00:07:41;99819.69;;;4.12;53.98
13553;BME280;6847;48.830;9.116;2023-02-13T00:10:09;99814.75;;;4.08;53.87
13553;BME280;6847;48.830;9.116;2023-02-13T00:12:35;99676.63;;;3.19;53.70
13553;BME280;6847;48.830;9.116;2023-02-13T00:15:02;99817.13;;;4.03;53.67
13553;BME280;6847;48.830;9.116;2023-02-13T00:17:31;99815.69;;;4.01;53.82
13553;BME280;6847;48.830;9.116;2023-02-13T00:20:01;99769.97;;;3.73;53.92
13553;BME280;6847;48.830;9.116;2023-02-13T00:22:28;99814.56;;;3.95;54.36
13553;BME280;6847;48.830;9.116;2023-02-13T00:24:55;99813.09;;;3.93;53.90
13553;BME280;6847;48.830;9.116;2023-02-13T00:27:22;99810.63;;;3.91;53.96
13553;BME280;6847;48.830;9.116;2023-02-13T00:29:49;99813.47;;;3.90;54.39
13553;BME280;6847;48.830;9.116;2023-02-13T00:32:17;99811.34;;;3.85;53.99
13553;BME280;6847;48.830;9.116;2023-02-13T00:34:46;99810.69;;;3.83;54.65
13553;BME280;6847;48.830;9.116;2023-02-13T00:37:15;99807.00;;;3.84;54.50
13553;BME280;6847;48.830;9.116;2023-02-13T00:39:42;99810.91;;;3.82;54.95
13553;BME280;6847;48.830;9.116;2023-02-13T00:42:10;99759.84;;;3.54;54.29
13553;BME280;6847;48.830;9.116;2023-02-13T00:44:37;99804.72;;;3.81;54.62
13553;BME280;6847;48.830;9.116;2023-02-13T00:47:05;99743.97;;;3.38;54.36
13553;BME280;6847;48.830;9.116;2023-02-13T00:49:32;99812.09;;;3.79;54.53
13553;BME280;6847;48.830;9.116;2023-02-13T00:52:00;99809.13;;;3.74;55.10
13553;BME280;6847;48.830;9.116;2023-02-13T00:54:29;99811.19;;;3.72;54.31
13553;BME280;6847;48.830;9.116;2023-02-13T00:56:55;99809.53;;;3.71;54.23
13553;BME280;6847;48.830;9.116;2023-02-13T00:59:22;99807.88;;;3.70;54.46
13553;BME280;6847;48.830;9.116;2023-02-13T01:01:50;99817.28;;;3.66;55.07
13553;BME280;6847;48.830;9.116;2023-02-13T01:04:17;99818.94;;;3.67;55.15
13553;BME280;6847;48.830;9.116;2023-02-13T01:06:43;99807.88;;;3.70;54.56
13553;BME280;6847;48.830;9.116;2023-02-13T01:09:19;99807.03;;;3.69;55.01
13553;BME280;6847;48.830;9.116;2023-02-13T01:11:46;99809.06;;;3.67;54.51
13553;BME280;6847;48.830;9.116;2023-02-13T01:14:13;99817.28;;;3.66;54.76
13553;BME280;6847;48.830;9.116;2023-02-13T01:16:39;99805.72;;;3.65;54.51
13553;BME280;6847;48.830;9.116;2023-02-13T01:19:05;99745.84;;;3.22;54.83
13553;BME280;6847;48.830;9.116;2023-02-13T01:21:32;99813.94;;;3.64;54.44
13553;BME280;6847;48.830;9.116;2023-02-13T01:24:02;99778.25;;;3.42;54.92
13553;BME280;6847;48.830;9.116;2023-02-13T01:26:30;99809.34;;;3.58;54.60
13553;BME280;6847;48.830;9.116;2023-02-13T01:28:57;99802.31;;;3.57;55.04
13553;BME280;6847;48.830;9.116;2023-02-13T01:31:24;99791.06;;;3.47;54.93
13553;BME280;6847;48.830;9.116;2023-02-13T01:33:51;99794.03;;;3.52;55.42
13553;BME280;6847;48.830;9.116;2023-02-13T01:36:19;99773.78;;;3.34;55.42
13553;BME280;6847;48.830;9.116;2023-02-13T01:38:46;99793.56;;;3.48;54.72
13553;BME280;6847;48.830;9.116;2023-02-13T01:41:13;99793.91;;;3.45;54.73
13553;BME280;6847;48.830;9.116;2023-02-13T01:43:48;99787.19;;;3.34;54.65
13553;BME280;6847;48.830;9.116;2023-02-13T01:46:17;99800.03;;;3.39;54.54
13553;BME280;6847;48.830;9.116;2023-02-13T01:48:46;99787.94;;;3.28;54.80
13553;BME280;6847;48.830;9.116;2023-02-13T01:51:17;99798.53;;;3.37;55.27
13553;BME280;6847;48.830;9.116;2023-02-13T01:53:53;99797.72;;;3.36;54.60
13553;BME280;6847;48.830;9.116;2023-02-13T01:56:25;99801.56;;;3.33;55.47
13553;BME280;6847;48.830;9.116;2023-02-13T01:58:58;99794.94;;;3.29;54.66
13553;BME280;6847;48.830;9.116;2023-02-13T02:01:26;99796.13;;;3.27;54.83
13553;BME280;6847;48.830;9.116;2023-02-13T02:03:59;99796.97;;;3.27;55.75
13553;BME280;6847;48.830;9.116;2023-02-13T02:06:33;99796.59;;;3.30;55.78
13553;BME280;6847;48.830;9.116;2023-02-13T02:09:04;99781.25;;;3.24;55.62
13553;BME280;6847;48.830;9.116;2023-02-13T02:11:35;99786.63;;;3.24;55.22
13553;BME280;6847;48.830;9.116;2023-02-13T02:14:07;99718.50;;;2.83;54.93
13553;BME280;6847;48.830;9.116;2023-02-13T02:16:36;99744.25;;;2.98;55.62
13553;BME280;6847;48.830;9.116;2023-02-13T02:19:11;99801.97;;;3.30;55.25
13553;BME280;6847;48.830;9.116;2023-02-13T02:22:02;99795.31;;;3.26;55.63
13553;BME280;6847;48.830;9.116;2023-02-13T02:25:02;99779.78;;;3.07;55.44
13553;BME280;6847;48.830;9.116;2023-02-13T02:27:42;99799.25;;;3.16;55.29
13553;BME280;6847;48.830;9.116;2023-02-13T02:30:50;99735.25;;;2.77;55.36
13553;BME280;6847;48.830;9.116;2023-02-13T02:33:29;99798.81;;;3.12;55.72
13553;BME280;6847;48.830;9.116;2023-02-13T02:36:09;99756.22;;;2.88;55.53
13553;BME280;6847;48.830;9.116;2023-02-13T02:38:57;99785.13;;;3.07;55.39
13553;BME280;6847;48.830;9.116;2023-02-13T02:41:34;99787.16;;;3.05;55.56
13553;BME280;6847;48.830;9.116;2023-02-13T02:44:15;99783.84;;;3.03;56.01
13553;BME280;6847;48.830;9.116;2023-02-13T02:46:55;99787.91;;;2.99;56.00
13553;BME280;6847;48.830;9.116;2023-02-13T02:49:50;99749.94;;;2.81;55.94
13553;BME280;6847;48.830;9.116;2023-02-13T02:52:38;99775.03;;;2.94;55.53
13553;BME280;6847;48.830;9.116;2023-02-13T02:55:12;99664.34;;;2.14;55.78
13553;BME280;6847;48.830;9.116;2023-02-13T02:57:50;99755.38;;;2.73;55.48
13553;BME280;6847;48.830;9.116;2023-02-13T03:00:40;99795.16;;;2.90;55.51
13553;BME280;6847;48.830;9.116;2023-02-13T03:03:27;99786.00;;;2.85;55.80
13553;BME280;6847;48.830;9.116;2023-02-13T03:06:15;99775.63;;;2.67;55.52
13553;BME280;6847;48.830;9.116;2023-02-13T03:08:46;99795.78;;;2.78;55.85
13553;BME280;6847;48.830;9.116;2023-02-13T03:11:36;99764.19;;;2.58;55.57
13553;BME280;6847;48.830;9.116;2023-02-13T03:14:25;99794.28;;;2.75;55.92
13553;BME280;6847;48.830;9.116;2023-02-13T03:16:57;99795.13;;;2.76;56.14
13553;BME280;6847;48.830;9.116;2023-02-13T03:19:50;99781.16;;;2.66;55.30
13553;BME280;6847;48.830;9.116;2023-02-13T03:22:44;99796.50;;;2.72;55.74
13553;BME280;6847;48.830;9.116;2023-02-13T03:25:24;99782.72;;;2.60;55.55
13553;BME280;6847;48.830;9.116;2023-02-13T03:28:02;99798.19;;;2.73;55.67
13553;BME280;6847;48.830;9.116;2023-02-13T03:30:57;99776.53;;;2.59;55.86
13553;BME280;6847;48.830;9.116;2023-02-13T03:33:39;99800.19;;;2.71;55.95
13553;BME280;6847;48.830;9.116;2023-02-13T03:36:18;99793.53;;;2.67;55.95
13553;BME280;6847;48.830;9.116;2023-02-13T03:39:16;99795.19;;;2.68;56.04
13553;BME280;6847;48.830;9.116;2023-02-13T03:41:52;99797.88;;;2.68;56.04
13553;BME280;6847;48.830;9.116;2023-02-13T03:44:27;99797.59;;;2.63;55.72
13553;BME280;6847;48.830;9.116;2023-02-13T03:47:00;99795.91;;;2.62;55.84
13553;BME280;6847;48.830;9.116;2023-02-13T03:49:36;99796.75;;;2.62;56.17
13553;BME280;6847;48.830;9.116;2023-02-13T03:52:25;99806.63;;;2.62;55.63
13553;BME280;6847;48.830;9.116;2023-02-13T03:54:57;99814.16;;;2.58;56.39
13553;BME280;6847;48.830;9.116;2023-02-13T03:57:45;99747.44;;;2.19;56.36
13553;BME280;6847;48.830;9.116;2023-02-13T04:00:35;99812.66;;;2.55;56.27
13553;BME280;6847;48.830;9.116;2023-02-13T04:03:14;99816.38;;;2.54;56.19
13553;BME280;6847;48.830;9.116;2023-02-13T04:05:48;99824.19;;;2.56;56.44
13553;BME280;6847;48.830;9.116;2023-02-13T04:08:19;99827.06;;;2.54;56.07
13553;BME280;6847;48.830;9.116;2023-02-13T04:10:58;99828.06;;;2.53;55.72
13553;BME280;6847;48.830;9.116;2023-02-13T04:13:34;99825.41;;;2.53;56.39
13553;BME280;6847;48.830;9.116;2023-02-13T04:16:07;99807.44;;;2.39;55.90
13553;BME280;6847;48.830;9.116;2023-02-13T04:18:37;99757.53;;;2.09;56.11
13553;BME280;6847;48.830;9.116;2023-02-13T04:21:06;99811.13;;;2.38;55.92
13553;BME280;6847;48.830;9.116;2023-02-13T04:23:33;99793.78;;;2.34;55.80
13553;BME280;6847;48.830;9.116;2023-02-13T04:26:15;99825.03;;;2.56;56.30
13553;BME280;6847;48.830;9.116;2023-02-13T04:28:42;99755.19;;;2.14;56.41
13553;BME280;6847;48.830;9.116;2023-02-13T04:31:09;99831.34;;;2.64;56.43
13553;BME280;6847;48.830;9.116;2023-02-13T04:33:37;99828.47;;;2.65;55.88
13553;BME280;6847;48.830;9.116;2023-02-13T04:36:04;99810.66;;;2.57;56.31
13553;BME280;6847;48.830;9.116;2023-02-13T04:38:31;99831.81;;;2.67;56.22
13553;BME280;6847;48.830;9.116;2023-02-13T04:40:58;99828.28;;;2.67;56.39
13553;BME280;6847;48.830;9.116;2023-02-13T04:43:26;99796.84;;;2.46;56.10
13553;BME280;6847;48.830;9.116;2023-02-13T04:45:53;99837.88;;;2.61;55.99
13553;BME280;6847;48.830;9.116;2023-02-13T04:48:20;99828.34;;;2.58;56.22
13553;BME280;6847;48.830;9.116;2023-02-13T04:50:49;99831.75;;;2.52;56.09
13553;BME280;6847;48.830;9.116;2023-02-13T04:53:15;99839.78;;;2.52;55.92
13553;BME280;6847;48.830;9.116;2023-02-13T04:55:43;99825.81;;;2.42;56.17
13553;BME280;6847;48.830;9.116;2023-02-13T04:58:09;99836.78;;;2.47;55.90
13553;BME280;6847;48.830;9.116;2023-02-13T05:00:38;99842.50;;;2.44;56.18
13553;BME280;6847;48.830;9.116;2023-02-13T05:03:07;99841.69;;;2.44;56.26
13553;BME280;6847;48.830;9.116;2023-02-13T05:05:38;99815.88;;;2.28;56.50
13553;BME280;6847;48.830;9.116;2023-02-13T05:08:06;99835.19;;;2.38;56.71
13553;BME280;6847;48.830;9.116;2023-02-13T05:10:34;99797.22;;;2.20;56.41
13553;BME280;6847;48.830;9.116;2023-02-13T05:13:00;99798.41;;;2.17;56.74
13553;BME280;6847;48.830;9.116;2023-02-13T05:15:27;99811.47;;;2.35;56.79
13553;BME280;6847;48.830;9.116;2023-02-13T05:17:56;99844.75;;;2.55;56.68
13553;BME280;6847;48.830;9.116;2023-02-13T05:20:23;99833.44;;;2.53;56.74
13553;BME280;6847;48.830;9.116;2023-02-13T05:22:52;99841.06;;;2.56;57.06
13553;BME280;6847;48.830;9.116;2023-02-13T05:25:38;99841.25;;;2.55;56.51
13553;BME280;6847;48.830;9.116;2023-02-13T05:28:07;99838.09;;;2.51;56.66
13553;BME280;6847;48.830;9.116;2023-02-13T05:30:55;99840.13;;;2.49;56.56
13553;BME280;6847;48.830;9.116;2023-02-13T05:33:22;99804.50;;;2.26;56.41
13553;BME280;6847;48.830;9.116;2023-02-13T05:35:51;99839.63;;;2.46;56.31
13553;BME280;6847;48.830;9.116;2023-02-13T05:38:18;99835.78;;;2.48;56.39
13553;BME280;6847;48.830;9.116;2023-02-13T05:40:44;99838.94;;;2.52;56.47
13553;BME280;6847;48.830;9.116;2023-02-13T05:43:11;99688.06;;;1.63;56.51
13553;BME280;6847;48.830;9.116;2023-02-13T05:45:39;99841.06;;;2.56;56.33
13553;BME280;6847;48.830;9.116;2023-02-13T05:48:06;99841.06;;;2.56;56.67
13553;BME280;6847;48.830;9.116;2023-02-13T05:50:34;99711.31;;;1.77;56.68
13553;BME280;6847;48.830;9.116;2023-02-13T05:53:02;99827.41;;;2.51;56.89
13553;BME280;6847;48.830;9.116;2023-02-13T05:55:31;99829.09;;;2.52;56.53
13553;BME280;6847;48.830;9.116;2023-02-13T05:57:58;99825.75;;;2.50;56.24
13553;BME280;6847;48.830;9.116;2023-02-13T06:00:24;99833.13;;;2.48;56.46
13553;BME280;6847;48.830;9.116;2023-02-13T06:02:51;99832.28;;;2.48;56.43
13553;BME280;6847;48.830;9.116;2023-02-13T06:05:18;99796.88;;;2.23;56.29
13553;BME280;6847;48.830;9.116;2023-02-13T06:07:46;99828.31;;;2.44;56.79
13553;BME280;6847;48.830;9.116;2023-02-13T06:10:13;99796.22;;;2.21;56.52
13553;BME280;6847;48.830;9.116;2023-02-13T06:12:41;99823.81;;;2.36;56.62
13553;BME280;6847;48.830;9.116;2023-02-13T06:15:08;99849.56;;;2.37;56.47
13553;BME280;6847;48.830;9.116;2023-02-13T06:17:37;99692.78;;;1.53;56.52
13553;BME280;6847;48.830;9.116;2023-02-13T06:20:06;99832.06;;;2.35;56.26
13553;BME280;6847;48.830;9.116;2023-02-13T06:22:33;99832.06;;;2.35;56.46
13553;BME280;6847;48.830;9.116;2023-02-13T06:25:01;99830.38;;;2.34;56.35
13553;BME280;6847;48.830;9.116;2023-02-13T06:27:28;99826.88;;;2.33;56.37
13553;BME280;6847;48.830;9.116;2023-02-13T06:29:54;99832.22;;;2.33;56.11
13553;BME280;6847;48.830;9.116;2023-02-13T06:32:21;99827.03;;;2.32;56.39
13553;BME280;6847;48.830;9.116;2023-02-13T06:34:49;99826.88;;;2.33;56.22
13553;BME280;6847;48.830;9.116;2023-02-13T06:37:17;99829.56;;;2.33;55.96
13553;BME280;6847;48.830;9.116;2023-02-13T06:39:44;99778.31;;;1.99;55.91
13553;BME280;6847;48.830;9.116;2023-02-13T06:42:12;99834.53;;;2.36;56.26
13553;BME280;6847;48.830;9.116;2023-02-13T06:44:38;99832.50;;;2.38;56.35
13553;BME280;6847;48.830;9.116;2023-02-13T06:47:05;99833.50;;;2.37;56.19
13553;BME280;6847;48.830;9.116;2023-02-13T06:49:33;99826.22;;;2.31;56.17
13553;BME280;6847;48.830;9.116;2023-02-13T06:52:00;99828.50;;;2.42;56.33
13553;BME280;6847;48.830;9.116;2023-02-13T06:54:26;99833.44;;;2.45;55.94
13553;BME280;6847;48.830;9.116;2023-02-13T06:56:53;99833.94;;;2.49;56.23
13553;BME280;6847;48.830;9.116;2023-02-13T06:59:21;99835.59;;;2.50;56.01
13553;BME280;6847;48.830;9.116;2023-02-13T07:01:48;99839.41;;;2.55;56.17
13553;BME280;6847;48.830;9.116;2023-02-13T07:04:14;99842.38;;;2.60;56.19
13553;BME280;6847;48.830;9.116;2023-02-13T07:06:41;99847.00;;;2.67;56.17
13553;BME280;6847;48.830;9.116;2023-02-13T07:09:08;99849.00;;;2.73;56.45
13553;BME280;6847;48.830;9.116;2023-02-13T07:11:38;99817.66;;;2.58;56.50
13553;BME280;6847;48.830;9.116;2023-02-13T07:14:06;99846.91;;;2.83;56.18
13553;BME280;6847;48.830;9.116;2023-02-13T07:16:33;99832.03;;;2.80;56.64
13553;BME280;6847;48.830;9.116;2023-02-13T07:19:02;99845.44;;;2.95;56.60
13553;BME280;6847;48.830;9.116;2023-02-13T07:21:29;99842.72;;;3.03;56.49
13553;BME280;6847;48.830;9.116;2023-02-13T07:23:56;99855.63;;;3.14;56.66
13553;BME280;6847;48.830;9.116;2023-02-13T07:26:23;99850.50;;;3.27;56.91
13553;BME280;6847;48.830;9.116;2023-02-13T07:28:50;99825.50;;;3.20;56.35
13553;BME280;6847;48.830;9.116;2023-02-13T07:31:17;99855.63;;;3.52;56.63
13553;BME280;6847;48.830;9.116;2023-02-13T07:33:48;99856.63;;;3.65;56.69
13553;BME280;6847;48.830;9.116;2023-02-13T07:36:15;99860.34;;;3.79;56.15
13553;BME280;6847;48.830;9.116;2023-02-13T07:38:42;99862.16;;;3.93;56.47
13553;BME280;6847;48.830;9.116;2023-02-13T07:41:10;99863.78;;;4.24;56.83
13553;BME280;6847;48.830;9.116;2023-02-13T07:43:36;99866.22;;;4.97;56.30
13553;BME280;6847;48.830;9.116;2023-02-13T07:46:04;99861.06;;;5.86;55.54
13553;BME280;6847;48.830;9.116;2023-02-13T07:48:32;99804.63;;;6.47;55.25
13553;BME280;6847;48.830;9.116;2023-02-13T07:51:02;99864.69;;;7.86;54.22
13553;BME280;6847;48.830;9.116;2023-02-13T07:53:30;99824.47;;;8.73;53.43
13553;BME280;6847;48.830;9.116;2023-02-13T07:55:57;99860.00;;;9.94;52.80
13553;BME280;6847;48.830;9.116;2023-02-13T07:58:24;99854.72;;;10.84;52.00
13553;BME280;6847;48.830;9.116;2023-02-13T08:00:51;99865.69;;;11.66;51.57
13553;BME280;6847;48.830;9.116;2023-02-13T08:03:17;99866.41;;;12.48;51.15
13553;BME280;6847;48.830;9.116;2023-02-13T08:05:46;99860.50;;;13.24;50.54
13553;BME280;6847;48.830;9.116;2023-02-13T08:08:15;99850.91;;;13.89;50.52
13553;BME280;6847;48.830;9.116;2023-02-13T08:10:41;99862.81;;;14.43;49.56
13553;BME280;6847;48.830;9.116;2023-02-13T08:13:28;99858.19;;;14.92;49.77
13553;BME280;6847;48.830;9.116;2023-02-13T08:15:54;99867.78;;;15.27;49.51
13553;BME280;6847;48.830;9.116;2023-02-13T08:18:21;99869.81;;;15.73;49.08
13553;BME280;6847;48.830;9.116;2023-02-13T08:20:48;99870.03;;;16.09;48.75
13553;BME280;6847;48.830;9.116;2023-02-13T08:23:16;99869.41;;;16.49;48.44
13553;BME280;6847;48.830;9.116;2023-02-13T08:25:43;99870.91;;;16.87;47.57
13553;BME280;6847;48.830;9.116;2023-02-13T08:28:11;99869.88;;;17.33;47.66
13553;BME280;6847;48.830;9.116;2023-02-13T08:30:39;99871.25;;;17.56;47.47
13553;BME280;6847;48.830;9.116;2023-02-13T08:33:05;99866.63;;;17.77;47.10
13553;BME280;6847;48.830;9.116;2023-02-13T08:35:32;99869.31;;;17.97;47.12
13553;BME280;6847;48.830;9.116;2023-02-13T08:38:01;99861.25;;;18.36;46.81
13553;BME280;6847;48.830;9.116;2023-02-13T08:40:29;99862.47;;;18.74;46.42
13553;BME280;6847;48.830;9.116;2023-02-13T08:42:58;99844.25;;;18.94;45.84
13553;BME280;6847;48.830;9.116;2023-02-13T08:45:28;99852.72;;;19.36;45.52
13553;BME280;6847;48.830;9.116;2023-02-13T08:47:55;99855.19;;;19.72;45.19
13553;BME280;6847;48.830;9.116;2023-02-13T08:50:32;99851.13;;;19.93;45.05
13553;BME280;6847;48.830;9.116;2023-02-13T08:52:58;99853.25;;;20.25;44.99
13553;BME280;6847;48.830;9.116;2023-02-13T08:55:25;99850.91;;;20.61;44.92
13553;BME280;6847;48.830;9.116;2023-02-13T08:57:58;99852.28;;;20.82;44.81
13553;BME280;6847;48.830;9.116;2023-02-13T09:00:27;99859.94;;;21.04;44.25
13553;BME280;6847;48.830;9.116;2023-02-13T09:02:55;99857.28;;;21.18;44.41
13553;BME280;6847;48.830;9.116;2023-02-13T09:05:25;99861.44;;;21.34;44.35
13553;BME280;6847;48.830;9.116;2023-02-13T09:07:59;99849.72;;;21.42;44.11
13553;BME280;6847;48.830;9.116;2023-02-13T09:10:25;99865.22;;;21.70;43.86
13553;BME280;6847;48.830;9.116;2023-02-13T09:12:54;99753.66;;;21.17;43.73
13553;BME280;6847;48.830;9.116;2023-02-13T09:15:20;99857.97;;;22.07;43.52
13553;BME280;6847;48.830;9.116;2023-02-13T09:17:48;99866.75;;;22.09;43.58
13553;BME280;6847;48.830;9.116;2023-02-13T09:20:28;99860.13;;;22.10;43.55
13553;BME280;6847;48.830;9.116;2023-02-13T09:22:56;99856.84;;;22.08;43.56
13553;BME280;6847;48.830;9.116;2023-02-13T09:25:30;99854.53;;;21.96;43.33
13553;BME280;6847;48.830;9.116;2023-02-13T09:27:59;99859.38;;;21.58;43.77
13553;BME280;6847;48.830;9.116;2023-02-13T09:30:28;99856.59;;;21.26;43.96
13553;BME280;6847;48.830;9.116;2023-02-13T09:32:56;99818.13;;;20.64;44.18
13553;BME280;6847;48.830;9.116;2023-02-13T09:35:26;99863.66;;;20.94;44.06
13553;BME280;6847;48.830;9.116;2023-02-13T09:37:54;99863.75;;;21.27;43.32
13553;BME280;6847;48.830;9.116;2023-02-13T09:40:28;99868.94;;;20.72;43.71
13553;BME280;6847;48.830;9.116;2023-02-13T09:43:12;99863.47;;;20.67;43.46
13553;BME280;6847;48.830;9.116;2023-02-13T09:45:43;99866.41;;;20.94;43.06
13553;BME280;6847;48.830;9.116;2023-02-13T09:48:17;99851.16;;;20.64;43.16
13553;BME280;6847;48.830;9.116;2023-02-13T09:50:47;99874.44;;;21.10;42.58
13553;BME280;6847;48.830;9.116;2023-02-13T09:53:20;99871.38;;;21.49;42.07
13553;BME280;6847;48.830;9.116;2023-02-13T09:55:55;99855.66;;;21.49;41.91
13553;BME280;6847;48.830;9.116;2023-02-13T09:58:38;99873.09;;;21.77;41.76
13553;BME280;6847;48.830;9.116;2023-02-13T10:01:15;99872.03;;;21.59;41.89
13553;BME280;6847;48.830;9.116;2023-02-13T10:03:50;99849.53;;;21.20;41.93
13553;BME280;6847;48.830;9.116;2023-02-13T10:06:23;99869.09;;;21.37;41.78
13553;BME280;6847;48.830;9.116;2023-02-13T10:09:05;99807.63;;;21.23;41.51
13553;BME280;6847;48.830;9.116;2023-02-13T10:11:47;99881.38;;;21.26;41.83
13553;BME280;6847;48.830;9.116;2023-02-13T10:14:26;99856.00;;;21.29;41.43
13553;BME280;6847;48.830;9.116;2023-02-13T10:16:54;99868.91;;;21.47;41.36
13553;BME280;6847;48.830;9.116;2023-02-13T10:19:31;99870.69;;;21.57;41.29
13553;BME280;6847;48.830;9.116;2023-02-13T10:22:06;99872.09;;;21.87;40.86
13553;BME280;6847;48.830;9.116;2023-02-13T10:24:40;99877.19;;;21.79;40.63
13553;BME280;6847;48.830;9.116;2023-02-13T10:27:17;99871.69;;;21.47;40.92
13553;BME280;6847;48.830;9.116;2023-02-13T10:29:49;99865.81;;;21.35;41.07
13553;BME280;6847;48.830;9.116;2023-02-13T10:32:57;99852.63;;;21.51;40.73
13553;BME280;6847;48.830;9.116;2023-02-13T10:35:41;99865.22;;;22.03;40.22
13553;BME280;6847;48.830;9.116;2023-02-13T10:38:28;99858.06;;;22.15;39.92
13553;BME280;6847;48.830;9.116;2023-02-13T10:41:10;99866.66;;;22.00;40.14
13553;BME280;6847;48.830;9.116;2023-02-13T10:44:01;99844.94;;;21.94;40.07
13553;BME280;6847;48.830;9.116;2023-02-13T10:46:37;99856.88;;;22.22;39.60
13553;BME280;6847;48.830;9.116;2023-02-13T10:49:20;99791.41;;;21.95;39.64
13553;BME280;6847;48.830;9.116;2023-02-13T10:51:54;99844.56;;;22.14;39.91
13553;BME280;6847;48.830;9.116;2023-02-13T10:54:39;99840.47;;;21.98;39.95
13553;BME280;6847;48.830;9.116;2023-02-13T10:57:18;99832.84;;;21.76;40.01
13553;BME280;6847;48.830;9.116;2023-02-13T10:59:57;99838.44;;;21.25;40.66
13553;BME280;6847;48.830;9.116;2023-02-13T11:02:31;99839.16;;;21.12;40.94
13553;BME280;6847;48.830;9.116;2023-02-13T11:05:13;99766.97;;;20.40;40.69
13553;BME280;6847;48.830;9.116;2023-02-13T11:07:43;99838.03;;;20.56;40.91
13553;BME280;6847;48.830;9.116;2023-02-13T11:10:15;99829.03;;;20.51;40.92
13553;BME280;6847;48.830;9.116;2023-02-13T11:12:43;99832.31;;;20.53;40.75
13553;BME280;6847;48.830;9.116;2023-02-13T11:15:21;99827.47;;;20.63;40.64
13553;BME280;6847;48.830;9.116;2023-02-13T11:17:50;99837.59;;;20.87;40.19
13553;BME280;6847;48.830;9.116;2023-02-13T11:20:29;99838.56;;;20.77;40.37
13553;BME280;6847;48.830;9.116;2023-02-13T11:23:16;99839.47;;;20.91;40.30
13553;BME280;6847;48.830;9.116;2023-02-13T11:25:55;99826.03;;;21.41;39.57
13553;BME280;6847;48.830;9.116;2023-02-13T11:28:23;99821.38;;;21.55;39.23
13553;BME280;6847;48.830;9.116;2023-02-13T11:30:50;99823.22;;;21.60;39.37
13553;BME280;6847;48.830;9.116;2023-02-13T11:33:23;99818.50;;;21.93;39.21
13553;BME280;6847;48.830;9.116;2023-02-13T11:36:04;99804.09;;;22.23;38.86
13553;BME280;6847;48.830;9.116;2023-02-13T11:38:31;99827.38;;;22.58;38.63
13553;BME280;6847;48.830;9.116;2023-02-13T11:41:07;99768.31;;;22.45;38.71
13553;BME280;6847;48.830;9.116;2023-02-13T11:43:42;99816.81;;;22.74;38.42
13553;BME280;6847;48.830;9.116;2023-02-13T11:46:18;99820.84;;;22.54;38.79
13553;BME280;6847;48.830;9.116;2023-02-13T11:49:02;99814.31;;;22.36;38.80
13553;BME280;6847;48.830;9.116;2023-02-13T11:51:41;99817.00;;;22.41;39.06
13553;BME280;6847;48.830;9.116;2023-02-13T11:54:23;99808.38;;;22.57;38.72
13553;BME280;6847;48.830;9.116;2023-02-13T11:57:13;99809.88;;;22.76;38.60
13553;BME280;6847;48.830;9.116;2023-02-13T11:59:44;99810.63;;;23.04;38.14
13553;BME280;6847;48.830;9.116;2023-02-13T12:02:14;99811.75;;;23.25;38.09
13553;BME280;6847;48.830;9.116;2023-02-13T12:04:43;99809.75;;;23.40;37.95
13553;BME280;6847;48.830;9.116;2023-02-13T12:07:17;99818.91;;;23.49;37.68
13553;BME280;6847;48.830;9.116;2023-02-13T12:10:17;99821.94;;;23.61;37.51
13553;BME280;6847;48.830;9.116;2023-02-13T12:12:52;99778.28;;;23.27;37.71
13553;BME280;6847;48.830;9.116;2023-02-13T12:15:26;99812.81;;;23.38;37.74
13553;BME280;6847;48.830;9.116;2023-02-13T12:18:09;99787.19;;;23.02;37.56
13553;BME280;6847;48.830;9.116;2023-02-13T12:20:51;99813.81;;;22.98;37.92
13553;BME280;6847;48.830;9.116;2023-02-13T12:23:28;99809.59;;;22.78;37.96
13553;BME280;6847;48.830;9.116;2023-02-13T12:26:26;99805.72;;;22.51;38.02
13553;BME280;6847;48.830;9.116;2023-02-13T12:29:22;99799.81;;;22.17;38.52
13553;BME280;6847;48.830;9.116;2023-02-13T12:32:03;99788.94;;;21.66;38.86
13553;BME280;6847;48.830;9.116;2023-02-13T12:35:13;99802.94;;;21.37;39.18
13553;BME280;6847;48.830;9.116;2023-02-13T12:37:56;99788.03;;;20.87;39.47
13553;BME280;6847;48.830;9.116;2023-02-13T12:40:53;99816.47;;;20.63;39.66
13553;BME280;6847;48.830;9.116;2023-02-13T12:43:52;99798.13;;;20.11;39.71
13553;BME280;6847;48.830;9.116;2023-02-13T12:46:27;99800.22;;;19.72;40.01
13553;BME280;6847;48.830;9.116;2023-02-13T12:48:59;99782.16;;;19.66;39.41
13553;BME280;6847;48.830;9.116;2023-02-13T12:51:40;99775.06;;;19.59;39.53
13553;BME280;6847;48.830;9.116;2023-02-13T12:54:27;99793.03;;;19.76;39.22
13553;BME280;6847;48.830;9.116;2023-02-13T12:57:13;99795.78;;;19.76;38.93
13553;BME280;6847;48.830;9.116;2023-02-13T13:00:08;99773.69;;;19.86;38.64
13553;BME280;6847;48.830;9.116;2023-02-13T13:02:48;99782.56;;;20.25;38.16
13553;BME280;6847;48.830;9.116;2023-02-13T13:05:30;99779.34;;;20.61;37.84
13553;BME280;6847;48.830;9.116;2023-02-13T13:08:15;99776.81;;;20.83;37.62
13553;BME280;6847;48.830;9.116;2023-02-13T13:10:54;99721.31;;;20.39;37.66
13553;BME280;6847;48.830;9.116;2023-02-13T13:13:37;99777.41;;;20.80;37.51
13553;BME280;6847;48.830;9.116;2023-02-13T13:16:13;99738.66;;;20.58;37.67
13553;BME280;6847;48.830;9.116;2023-02-13T13:18:54;99780.38;;;21.02;37.30
13553;BME280;6847;48.830;9.116;2023-02-13T13:21:28;99776.25;;;21.19;37.21
13553;BME280;6847;48.830;9.116;2023-02-13T13:24:02;99779.25;;;21.36;36.96
13553;BME280;6847;48.830;9.116;2023-02-13T13:26:35;99775.22;;;21.47;36.97
13553;BME280;6847;48.830;9.116;2023-02-13T13:29:11;99780.44;;;21.49;36.92
13553;BME280;6847;48.830;9.116;2023-02-13T13:31:42;99777.91;;;21.52;37.02
13553;BME280;6847;48.830;9.116;2023-02-13T13:34:17;99768.91;;;21.60;36.99
13553;BME280;6847;48.830;9.116;2023-02-13T13:36:48;99755.31;;;21.50;36.80
13553;BME280;6847;48.830;9.116;2023-02-13T13:39:26;99774.69;;;21.45;37.09
13553;BME280;6847;48.830;9.116;2023-02-13T13:42:05;99751.34;;;21.42;37.03
13553;BME280;6847;48.830;9.116;2023-02-13T13:45:07;99769.81;;;21.56;36.98
13553;BME280;6847;48.830;9.116;2023-02-13T13:47:51;99742.59;;;21.54;36.55
13553;BME280;6847;48.830;9.116;2023-02-13T13:50:22;99760.56;;;21.79;36.70